sensor_id;sensor_type;location;lat;lon;timestamp;P1;durP1;ratioP1;P2;durP2;ratioP2
19291;SDS011;9779;51.756;7.450;2024-01-15T00:00:38;11.97;;;10.80;;
19291;SDS011;9779;51.756;7.450;2024-01-15T00:03:04;12.73;;;11.47;;
19291;SDS011;9779;51.756;7.450;2024-01-15T00:05:30;15.30;;;12.33;;
19291;SDS011;9779;51.756;7.450;2024-01-15T00:07:56;12.70;;;11.30;;
19291;SDS011;9779;51.756;7.450;2024-01-15T00:10:21;14.50;;;12.10;;
19291;SDS011;9779;51.756;7.450;2024-01-15T00:12:47;16.47;;;12.63;;
19291;SDS011;9779;51.756;7.450;2024-01-15T00:15:12;13.13;;;11.63;;
19291;SDS011;9779;51.756;7.450;2024-01-15T00:17:38;16.90;;;13.03;;
19291;SDS011;9779;51.756;7.450;2024-01-15T00:20:04;16.13;;;12.67;;
19291;SDS011;9779;51.756;7.450;2024-01-15T00:22:30;19.67;;;13.73;;
19291;SDS011;9779;51.756;7.450;2024-01-15T00:24:56;17.50;;;13.63;;
19291;SDS011;9779;51.756;7.450;2024-01-15T00:27:22;14.37;;;12.83;;
19291;SDS011;9779;51.756;7.450;2024-01-15T00:29:48;18.00;;;12.30;;
19291;SDS011;9779;51.756;7.450;2024-01-15T00:32:15;15.77;;;12.33;;
19291;SDS011;9779;51.756;7.450;2024-01-15T00:34:41;16.50;;;13.17;;
19291;SDS011;9779;51.756;7.450;2024-01-15T00:37:07;15.67;;;13.20;;
19291;SDS011;9779;51.756;7.450;2024-01-15T00:39:32;16.23;;;13.60;;
19291;SDS011;9779;51.756;7.450;2024-01-15T00:41:58;15.77;;;13.40;;
19291;SDS011;9779;51.756;7.450;2024-01-15T00:44:24;19.10;;;12.77;;
19291;SDS011;9779;51.756;7.450;2024-01-15T00:46:49;16.80;;;13.00;;
19291;SDS011;9779;51.756;7.450;2024-01-15T00:49:15;20.67;;;13.13;;
19291;SDS011;9779;51.756;7.450;2024-01-15T00:51:41;17.50;;;12.73;;
19291;SDS011;9779;51.756;7.450;2024-01-15T00:54:07;21.47;;;14.03;;
19291;SDS011;9779;51.756;7.450;2024-01-15T00:56:32;18.70;;;13.47;;
19291;SDS011;9779;51.756;7.450;2024-01-15T00:58:58;18.73;;;13.13;;
19291;SDS011;9779;51.756;7.450;2024-01-15T01:01:24;22.50;;;12.57;;
19291;SDS011;9779;51.756;7.450;2024-01-15T01:03:50;14.77;;;12.47;;
19291;SDS011;9779;51.756;7.450;2024-01-15T01:06:15;17.93;;;13.23;;
19291;SDS011;9779;51.756;7.450;2024-01-15T01:08:41;20.47;;;14.47;;
19291;SDS011;9779;51.756;7.450;2024-01-15T01:11:07;23.50;;;13.53;;
19291;SDS011;9779;51.756;7.450;2024-01-15T01:13:32;17.13;;;13.10;;
19291;SDS011;9779;51.756;7.450;2024-01-15T01:15:58;18.70;;;12.47;;
19291;SDS011;9779;51.756;7.450;2024-01-15T01:18:24;20.13;;;11.50;;
19291;SDS011;9779;51.756;7.450;2024-01-15T01:20:50;20.63;;;12.87;;
19291;SDS011;9779;51.756;7.450;2024-01-15T01:23:16;16.30;;;11.63;;
19291;SDS011;9779;51.756;7.450;2024-01-15T01:25:41;15.57;;;11.80;;
19291;SDS011;9779;51.756;7.450;2024-01-15T01:28:07;15.70;;;11.30;;
19291;SDS011;9779;51.756;7.450;2024-01-15T01:30:33;15.70;;;11.20;;
19291;SDS011;9779;51.756;7.450;2024-01-15T01:32:58;17.17;;;11.23;;
19291;SDS011;9779;51.756;7.450;2024-01-15T01:35:24;16.73;;;10.60;;
19291;SDS011;9779;51.756;7.450;2024-01-15T01:37:49;18.47;;;11.87;;
19291;SDS011;9779;51.756;7.450;2024-01-15T01:40:15;16.87;;;11.40;;
19291;SDS011;9779;51.756;7.450;2024-01-15T01:42:41;17.43;;;11.23;;
19291;SDS011;9779;51.756;7.450;2024-01-15T01:45:06;18.83;;;10.33;;
19291;SDS011;9779;51.756;7.450;2024-01-15T01:47:33;15.17;;;10.73;;
19291;SDS011;9779;51.756;7.450;2024-01-15T01:49:59;14.67;;;11.10;;
19291;SDS011;9779;51.756;7.450;2024-01-15T01:52:26;17.43;;;10.00;;
19291;SDS011;9779;51.756;7.450;2024-01-15T01:54:51;26.43;;;11.03;;
19291;SDS011;9779;51.756;7.450;2024-01-15T01:57:17;13.67;;;9.70;;
19291;SDS011;9779;51.756;7.450;2024-01-15T01:59:43;12.97;;;10.43;;
19291;SDS011;9779;51.756;7.450;2024-01-15T02:02:10;20.23;;;10.47;;
19291;SDS011;9779;51.756;7.450;2024-01-15T02:04:36;17.73;;;10.83;;
19291;SDS011;9779;51.756;7.450;2024-01-15T02:07:03;18.97;;;11.43;;
19291;SDS011;9779;51.756;7.450;2024-01-15T02:09:29;13.67;;;11.43;;
19291;SDS011;9779;51.756;7.450;2024-01-15T02:11:54;19.10;;;10.93;;
19291;SDS011;9779;51.756;7.450;2024-01-15T02:14:20;17.53;;;10.83;;
19291;SDS011;9779;51.756;7.450;2024-01-15T02:16:46;16.07;;;9.17;;
19291;SDS011;9779;51.756;7.450;2024-01-15T02:19:15;14.93;;;9.93;;
19291;SDS011;9779;51.756;7.450;2024-01-15T02:21:44;19.23;;;10.20;;
19291;SDS011;9779;51.756;7.450;2024-01-15T02:24:10;14.67;;;10.07;;
19291;SDS011;9779;51.756;7.450;2024-01-15T02:26:36;16.93;;;9.70;;
19291;SDS011;9779;51.756;7.450;2024-01-15T02:29:03;11.50;;;8.90;;
19291;SDS011;9779;51.756;7.450;2024-01-15T02:31:31;12.97;;;8.70;;
19291;SDS011;9779;51.756;7.450;2024-01-15T02:33:57;12.87;;;9.27;;
19291;SDS011;9779;51.756;7.450;2024-01-15T02:36:23;11.20;;;9.13;;
19291;SDS011;9779;51.756;7.450;2024-01-15T02:38:48;16.07;;;8.37;;
19291;SDS011;9779;51.756;7.450;2024-01-15T02:41:14;12.30;;;8.87;;
19291;SDS011;9779;51.756;7.450;2024-01-15T02:43:40;14.33;;;8.07;;
19291;SDS011;9779;51.756;7.450;2024-01-15T02:46:06;13.50;;;8.30;;
19291;SDS011;9779;51.756;7.450;2024-01-15T02:48:32;10.97;;;6.80;;
19291;SDS011;9779;51.756;7.450;2024-01-15T02:50:59;11.07;;;8.13;;
19291;SDS011;9779;51.756;7.450;2024-01-15T02:53:25;20.40;;;7.87;;
19291;SDS011;9779;51.756;7.450;2024-01-15T02:55:51;11.63;;;7.77;;
19291;SDS011;9779;51.756;7.450;2024-01-15T02:58:16;8.37;;;7.07;;
19291;SDS011;9779;51.756;7.450;2024-01-15T03:00:42;14.00;;;7.60;;
19291;SDS011;9779;51.756;7.450;2024-01-15T03:03:08;12.67;;;7.23;;
19291;SDS011;9779;51.756;7.450;2024-01-15T03:05:34;10.67;;;7.63;;
19291;SDS011;9779;51.756;7.450;2024-01-15T03:07:59;12.13;;;7.10;;
19291;SDS011;9779;51.756;7.450;2024-01-15T03:10:25;7.93;;;6.03;;
19291;SDS011;9779;51.756;7.450;2024-01-15T03:12:51;8.33;;;6.13;;
19291;SDS011;9779;51.756;7.450;2024-01-15T03:15:16;9.97;;;7.10;;
19291;SDS011;9779;51.756;7.450;2024-01-15T03:17:43;9.00;;;6.37;;
19291;SDS011;9779;51.756;7.450;2024-01-15T03:20:09;12.07;;;7.63;;
19291;SDS011;9779;51.756;7.450;2024-01-15T03:22:35;9.60;;;6.70;;
19291;SDS011;9779;51.756;7.450;2024-01-15T03:25:01;7.40;;;6.30;;
19291;SDS011;9779;51.756;7.450;2024-01-15T03:27:26;14.50;;;6.63;;
19291;SDS011;9779;51.756;7.450;2024-01-15T03:29:52;10.63;;;6.53;;
19291;SDS011;9779;51.756;7.450;2024-01-15T03:32:17;10.27;;;6.33;;
19291;SDS011;9779;51.756;7.450;2024-01-15T03:34:44;10.23;;;6.60;;
19291;SDS011;9779;51.756;7.450;2024-01-15T03:37:10;12.67;;;6.17;;
19291;SDS011;9779;51.756;7.450;2024-01-15T03:39:37;6.60;;;5.80;;
19291;SDS011;9779;51.756;7.450;2024-01-15T03:42:03;14.70;;;6.00;;
19291;SDS011;9779;51.756;7.450;2024-01-15T03:44:29;10.63;;;6.67;;
19291;SDS011;9779;51.756;7.450;2024-01-15T03:46:54;11.63;;;6.67;;
19291;SDS011;9779;51.756;7.450;2024-01-15T03:49:20;7.53;;;5.43;;
19291;SDS011;9779;51.756;7.450;2024-01-15T03:51:46;9.63;;;6.43;;
19291;SDS011;9779;51.756;7.450;2024-01-15T03:54:11;14.27;;;6.20;;
19291;SDS011;9779;51.756;7.450;2024-01-15T03:56:37;9.50;;;7.37;;
19291;SDS011;9779;51.756;7.450;2024-01-15T03:59:02;8.10;;;7.30;;
19291;SDS011;9779;51.756;7.450;2024-01-15T04:01:28;8.20;;;6.20;;
19291;SDS011;9779;51.756;7.450;2024-01-15T04:03:54;7.93;;;6.60;;
19291;SDS011;9779;51.756;7.450;2024-01-15T04:06:20;6.30;;;5.40;;
19291;SDS011;9779;51.756;7.450;2024-01-15T04:08:46;10.07;;;6.43;;
19291;SDS011;9779;51.756;7.450;2024-01-15T04:11:11;12.37;;;7.37;;
19291;SDS011;9779;51.756;7.450;2024-01-15T04:13:37;6.77;;;6.13;;
19291;SDS011;9779;51.756;7.450;2024-01-15T04:16:02;13.13;;;6.43;;
19291;SDS011;9779;51.756;7.450;2024-01-15T04:18:28;13.57;;;7.27;;
19291;SDS011;9779;51.756;7.450;2024-01-15T04:20:54;11.80;;;7.70;;
19291;SDS011;9779;51.756;7.450;2024-01-15T04:23:19;11.10;;;5.97;;
19291;SDS011;9779;51.756;7.450;2024-01-15T04:25:45;10.43;;;6.73;;
19291;SDS011;9779;51.756;7.450;2024-01-15T04:28:11;7.77;;;6.77;;
19291;SDS011;9779;51.756;7.450;2024-01-15T04:30:37;12.40;;;6.73;;
19291;SDS011;9779;51.756;7.450;2024-01-15T04:33:02;9.53;;;5.83;;
19291;SDS011;9779;51.756;7.450;2024-01-15T04:35:28;11.17;;;6.47;;
19291;SDS011;9779;51.756;7.450;2024-01-15T04:37:55;17.00;;;7.20;;
19291;SDS011;9779;51.756;7.450;2024-01-15T04:40:20;14.47;;;6.20;;
19291;SDS011;9779;51.756;7.450;2024-01-15T04:42:46;11.37;;;6.30;;
19291;SDS011;9779;51.756;7.450;2024-01-15T04:45:12;11.30;;;6.20;;
19291;SDS011;9779;51.756;7.450;2024-01-15T04:47:37;12.73;;;6.57;;
19291;SDS011;9779;51.756;7.450;2024-01-15T04:50:03;12.53;;;5.77;;
19291;SDS011;9779;51.756;7.450;2024-01-15T04:52:30;10.80;;;5.37;;
19291;SDS011;9779;51.756;7.450;2024-01-15T04:54:55;8.57;;;5.57;;
19291;SDS011;9779;51.756;7.450;2024-01-15T04:57:21;6.23;;;5.60;;
19291;SDS011;9779;51.756;7.450;2024-01-15T04:59:46;5.97;;;5.20;;
19291;SDS011;9779;51.756;7.450;2024-01-15T05:02:12;14.17;;;5.77;;
19291;SDS011;9779;51.756;7.450;2024-01-15T05:04:38;11.50;;;5.20;;
19291;SDS011;9779;51.756;7.450;2024-01-15T05:07:04;11.70;;;4.53;;
19291;SDS011;9779;51.756;7.450;2024-01-15T05:09:30;5.73;;;4.57;;
19291;SDS011;9779;51.756;7.450;2024-01-15T05:11:55;6.07;;;5.13;;
19291;SDS011;9779;51.756;7.450;2024-01-15T05:14:21;8.10;;;5.07;;
19291;SDS011;9779;51.756;7.450;2024-01-15T05:16:47;6.23;;;4.17;;
19291;SDS011;9779;51.756;7.450;2024-01-15T05:19:13;11.97;;;4.23;;
19291;SDS011;9779;51.756;7.450;2024-01-15T05:21:39;6.13;;;4.13;;
19291;SDS011;9779;51.756;7.450;2024-01-15T05:24:04;8.50;;;5.00;;
19291;SDS011;9779;51.756;7.450;2024-01-15T05:26:30;5.77;;;4.10;;
19291;SDS011;9779;51.756;7.450;2024-01-15T05:28:55;5.57;;;4.07;;
19291;SDS011;9779;51.756;7.450;2024-01-15T05:31:21;10.07;;;4.20;;
19291;SDS011;9779;51.756;7.450;2024-01-15T05:33:47;4.07;;;3.67;;
19291;SDS011;9779;51.756;7.450;2024-01-15T05:36:12;9.10;;;4.13;;
19291;SDS011;9779;51.756;7.450;2024-01-15T05:38:38;5.47;;;3.63;;
19291;SDS011;9779;51.756;7.450;2024-01-15T05:41:04;6.97;;;3.43;;
19291;SDS011;9779;51.756;7.450;2024-01-15T05:43:30;4.27;;;3.03;;
19291;SDS011;9779;51.756;7.450;2024-01-15T05:45:56;5.57;;;3.53;;
19291;SDS011;9779;51.756;7.450;2024-01-15T05:48:21;6.17;;;3.67;;
19291;SDS011;9779;51.756;7.450;2024-01-15T05:50:47;4.60;;;3.30;;
19291;SDS011;9779;51.756;7.450;2024-01-15T05:53:13;7.20;;;3.10;;
19291;SDS011;9779;51.756;7.450;2024-01-15T05:55:38;6.23;;;3.57;;
19291;SDS011;9779;51.756;7.450;2024-01-15T05:58:04;7.57;;;3.83;;
19291;SDS011;9779;51.756;7.450;2024-01-15T06:00:30;7.83;;;3.77;;
19291;SDS011;9779;51.756;7.450;2024-01-15T06:02:58;4.43;;;3.33;;
19291;SDS011;9779;51.756;7.450;2024-01-15T06:05:24;5.17;;;3.33;;
19291;SDS011;9779;51.756;7.450;2024-01-15T06:07:50;4.50;;;3.20;;
19291;SDS011;9779;51.756;7.450;2024-01-15T06:10:15;5.37;;;4.00;;
19291;SDS011;9779;51.756;7.450;2024-01-15T06:12:43;7.87;;;4.10;;
19291;SDS011;9779;51.756;7.450;2024-01-15T06:15:09;6.57;;;3.90;;
19291;SDS011;9779;51.756;7.450;2024-01-15T06:17:35;7.23;;;4.37;;
19291;SDS011;9779;51.756;7.450;2024-01-15T06:20:00;7.70;;;4.17;;
19291;SDS011;9779;51.756;7.450;2024-01-15T06:22:26;9.20;;;4.07;;
19291;SDS011;9779;51.756;7.450;2024-01-15T06:24:53;8.43;;;4.67;;
19291;SDS011;9779;51.756;7.450;2024-01-15T06:27:18;7.40;;;4.63;;
19291;SDS011;9779;51.756;7.450;2024-01-15T06:29:45;5.50;;;3.97;;
19291;SDS011;9779;51.756;7.450;2024-01-15T06:32:14;12.33;;;4.33;;
19291;SDS011;9779;51.756;7.450;2024-01-15T06:34:39;5.33;;;4.00;;
19291;SDS011;9779;51.756;7.450;2024-01-15T06:37:05;7.73;;;3.90;;
19291;SDS011;9779;51.756;7.450;2024-01-15T06:39:31;8.90;;;3.90;;
19291;SDS011;9779;51.756;7.450;2024-01-15T06:41:57;10.27;;;4.67;;
19291;SDS011;9779;51.756;7.450;2024-01-15T06:44:22;10.53;;;4.10;;
19291;SDS011;9779;51.756;7.450;2024-01-15T06:46:48;10.70;;;4.73;;
19291;SDS011;9779;51.756;7.450;2024-01-15T06:49:14;5.23;;;4.23;;
19291;SDS011;9779;51.756;7.450;2024-01-15T06:51:39;7.43;;;4.77;;
19291;SDS011;9779;51.756;7.450;2024-01-15T06:54:05;11.00;;;4.40;;
19291;SDS011;9779;51.756;7.450;2024-01-15T06:56:31;6.80;;;4.27;;
19291;SDS011;9779;51.756;7.450;2024-01-15T06:58:57;13.73;;;4.17;;
19291;SDS011;9779;51.756;7.450;2024-01-15T07:01:22;10.07;;;4.67;;
19291;SDS011;9779;51.756;7.450;2024-01-15T07:03:48;5.13;;;4.63;;
19291;SDS011;9779;51.756;7.450;2024-01-15T07:06:13;3.87;;;3.57;;
19291;SDS011;9779;51.756;7.450;2024-01-15T07:08:39;8.23;;;4.80;;
19291;SDS011;9779;51.756;7.450;2024-01-15T07:11:06;4.20;;;3.77;;
19291;SDS011;9779;51.756;7.450;2024-01-15T07:13:32;4.60;;;4.13;;
19291;SDS011;9779;51.756;7.450;2024-01-15T07:15:58;13.73;;;4.73;;
19291;SDS011;9779;51.756;7.450;2024-01-15T07:18:23;9.13;;;4.43;;
19291;SDS011;9779;51.756;7.450;2024-01-15T07:20:49;7.77;;;4.60;;
19291;SDS011;9779;51.756;7.450;2024-01-15T07:23:15;6.47;;;4.83;;
19291;SDS011;9779;51.756;7.450;2024-01-15T07:25:42;5.63;;;4.60;;
19291;SDS011;9779;51.756;7.450;2024-01-15T07:28:08;6.10;;;4.67;;
19291;SDS011;9779;51.756;7.450;2024-01-15T07:30:33;6.37;;;3.97;;
19291;SDS011;9779;51.756;7.450;2024-01-15T07:32:59;7.23;;;4.60;;
19291;SDS011;9779;51.756;7.450;2024-01-15T07:35:25;5.10;;;4.70;;
19291;SDS011;9779;51.756;7.450;2024-01-15T07:37:50;8.53;;;4.63;;
19291;SDS011;9779;51.756;7.450;2024-01-15T07:40:16;4.30;;;3.93;;
19291;SDS011;9779;51.756;7.450;2024-01-15T07:42:42;18.07;;;5.30;;
19291;SDS011;9779;51.756;7.450;2024-01-15T07:45:08;5.43;;;4.73;;
19291;SDS011;9779;51.756;7.450;2024-01-15T07:47:34;5.67;;;4.30;;
19291;SDS011;9779;51.756;7.450;2024-01-15T07:49:59;7.87;;;4.37;;
19291;SDS011;9779;51.756;7.450;2024-01-15T07:52:25;4.53;;;4.20;;
19291;SDS011;9779;51.756;7.450;2024-01-15T07:54:51;5.50;;;3.70;;
19291;SDS011;9779;51.756;7.450;2024-01-15T07:57:17;7.90;;;3.57;;
19291;SDS011;9779;51.756;7.450;2024-01-15T07:59:42;7.87;;;4.07;;
19291;SDS011;9779;51.756;7.450;2024-01-15T08:02:08;5.70;;;5.20;;
19291;SDS011;9779;51.756;7.450;2024-01-15T08:04:33;4.40;;;4.10;;
19291;SDS011;9779;51.756;7.450;2024-01-15T08:06:59;3.97;;;3.67;;
19291;SDS011;9779;51.756;7.450;2024-01-15T08:09:25;4.40;;;3.17;;
19291;SDS011;9779;51.756;7.450;2024-01-15T08:11:50;3.60;;;3.30;;
19291;SDS011;9779;51.756;7.450;2024-01-15T08:14:17;3.80;;;3.50;;
19291;SDS011;9779;51.756;7.450;2024-01-15T08:16:43;5.97;;;3.50;;
19291;SDS011;9779;51.756;7.450;2024-01-15T08:19:08;4.50;;;3.33;;
19291;SDS011;9779;51.756;7.450;2024-01-15T08:21:34;2.70;;;2.50;;
19291;SDS011;9779;51.756;7.450;2024-01-15T08:24:00;4.63;;;3.70;;
19291;SDS011;9779;51.756;7.450;2024-01-15T08:26:27;2.97;;;2.63;;
19291;SDS011;9779;51.756;7.450;2024-01-15T08:28:53;2.87;;;2.67;;
19291;SDS011;9779;51.756;7.450;2024-01-15T08:31:18;2.50;;;2.30;;
19291;SDS011;9779;51.756;7.450;2024-01-15T08:33:44;3.00;;;2.80;;
19291;SDS011;9779;51.756;7.450;2024-01-15T08:36:10;2.20;;;2.00;;
19291;SDS011;9779;51.756;7.450;2024-01-15T08:38:36;2.87;;;2.67;;
19291;SDS011;9779;51.756;7.450;2024-01-15T08:41:01;6.20;;;2.40;;
19291;SDS011;9779;51.756;7.450;2024-01-15T08:43:27;3.00;;;2.40;;
19291;SDS011;9779;51.756;7.450;2024-01-15T08:45:53;2.30;;;2.10;;
19291;SDS011;9779;51.756;7.450;2024-01-15T08:48:18;3.23;;;2.47;;
19291;SDS011;9779;51.756;7.450;2024-01-15T08:50:44;6.87;;;2.17;;
19291;SDS011;9779;51.756;7.450;2024-01-15T08:53:12;2.43;;;2.33;;
19291;SDS011;9779;51.756;7.450;2024-01-15T08:55:38;2.50;;;2.30;;
19291;SDS011;9779;51.756;7.450;2024-01-15T08:58:04;3.93;;;1.90;;
19291;SDS011;9779;51.756;7.450;2024-01-15T09:00:31;3.17;;;2.67;;
19291;SDS011;9779;51.756;7.450;2024-01-15T09:02:57;2.37;;;2.17;;
19291;SDS011;9779;51.756;7.450;2024-01-15T09:05:22;2.50;;;2.30;;
19291;SDS011;9779;51.756;7.450;2024-01-15T09:07:48;2.50;;;2.30;;
19291;SDS011;9779;51.756;7.450;2024-01-15T09:10:14;2.00;;;1.90;;
19291;SDS011;9779;51.756;7.450;2024-01-15T09:12:39;2.20;;;2.03;;
19291;SDS011;9779;51.756;7.450;2024-01-15T09:15:05;6.60;;;2.20;;
19291;SDS011;9779;51.756;7.450;2024-01-15T09:17:31;2.67;;;2.50;;
19291;SDS011;9779;51.756;7.450;2024-01-15T09:19:57;2.20;;;2.10;;
19291;SDS011;9779;51.756;7.450;2024-01-15T09:22:23;2.77;;;2.23;;
19291;SDS011;9779;51.756;7.450;2024-01-15T09:24:49;2.47;;;2.37;;
19291;SDS011;9779;51.756;7.450;2024-01-15T09:27:14;2.30;;;2.20;;
19291;SDS011;9779;51.756;7.450;2024-01-15T09:29:41;2.23;;;2.13;;
19291;SDS011;9779;51.756;7.450;2024-01-15T09:32:07;3.07;;;2.87;;
19291;SDS011;9779;51.756;7.450;2024-01-15T09:34:33;2.47;;;2.37;;
19291;SDS011;9779;51.756;7.450;2024-01-15T09:36:59;2.60;;;2.50;;
19291;SDS011;9779;51.756;7.450;2024-01-15T09:39:25;4.60;;;2.90;;
19291;SDS011;9779;51.756;7.450;2024-01-15T09:41:53;2.80;;;2.70;;
19291;SDS011;9779;51.756;7.450;2024-01-15T09:44:19;3.23;;;3.03;;
19291;SDS011;9779;51.756;7.450;2024-01-15T09:46:46;3.73;;;3.23;;
19291;SDS011;9779;51.756;7.450;2024-01-15T09:49:14;2.60;;;2.50;;
19291;SDS011;9779;51.756;7.450;2024-01-15T09:51:40;3.70;;;3.47;;
19291;SDS011;9779;51.756;7.450;2024-01-15T09:54:06;2.70;;;2.60;;
19291;SDS011;9779;51.756;7.450;2024-01-15T09:56:33;3.00;;;2.90;;
19291;SDS011;9779;51.756;7.450;2024-01-15T09:58:59;3.70;;;3.50;;
19291;SDS011;9779;51.756;7.450;2024-01-15T10:01:25;3.43;;;3.23;;
19291;SDS011;9779;51.756;7.450;2024-01-15T10:03:51;3.50;;;3.30;;
19291;SDS011;9779;51.756;7.450;2024-01-15T10:06:18;4.00;;;3.80;;
19291;SDS011;9779;51.756;7.450;2024-01-15T10:08:47;5.03;;;4.63;;
19291;SDS011;9779;51.756;7.450;2024-01-15T10:11:14;3.77;;;3.57;;
19291;SDS011;9779;51.756;7.450;2024-01-15T10:13:41;3.67;;;3.37;;
19291;SDS011;9779;51.756;7.450;2024-01-15T10:16:08;3.50;;;3.20;;
19291;SDS011;9779;51.756;7.450;2024-01-15T10:18:34;3.73;;;3.40;;
19291;SDS011;9779;51.756;7.450;2024-01-15T10:21:02;2.80;;;2.60;;
19291;SDS011;9779;51.756;7.450;2024-01-15T10:23:29;3.97;;;3.03;;
19291;SDS011;9779;51.756;7.450;2024-01-15T10:25:57;3.17;;;2.97;;
19291;SDS011;9779;51.756;7.450;2024-01-15T10:28:25;3.00;;;2.80;;
19291;SDS011;9779;51.756;7.450;2024-01-15T10:30:52;2.27;;;2.10;;
19291;SDS011;9779;51.756;7.450;2024-01-15T10:33:21;2.17;;;2.03;;
19291;SDS011;9779;51.756;7.450;2024-01-15T10:35:51;2.23;;;2.13;;
19291;SDS011;9779;51.756;7.450;2024-01-15T10:38:22;1.70;;;1.60;;
19291;SDS011;9779;51.756;7.450;2024-01-15T10:40:53;1.63;;;1.53;;
19291;SDS011;9779;51.756;7.450;2024-01-15T10:43:19;1.47;;;1.37;;
19291;SDS011;9779;51.756;7.450;2024-01-15T10:45:45;1.30;;;1.30;;
19291;SDS011;9779;51.756;7.450;2024-01-15T10:48:12;1.30;;;1.20;;
19291;SDS011;9779;51.756;7.450;2024-01-15T10:50:38;1.70;;;1.60;;
19291;SDS011;9779;51.756;7.450;2024-01-15T10:53:04;1.20;;;1.20;;
19291;SDS011;9779;51.756;7.450;2024-01-15T10:55:30;2.20;;;2.10;;
19291;SDS011;9779;51.756;7.450;2024-01-15T10:57:58;1.70;;;1.60;;
19291;SDS011;9779;51.756;7.450;2024-01-15T11:00:24;2.00;;;1.90;;
19291;SDS011;9779;51.756;7.450;2024-01-15T11:02:51;3.67;;;1.70;;
19291;SDS011;9779;51.756;7.450;2024-01-15T11:05:20;1.93;;;1.83;;
19291;SDS011;9779;51.756;7.450;2024-01-15T11:07:48;5.00;;;1.90;;
19291;SDS011;9779;51.756;7.450;2024-01-15T11:13:40;2.17;;;1.40;;
19291;SDS011;9779;51.756;7.450;2024-01-15T11:18:27;2.30;;;1.77;;
19291;SDS011;9779;51.756;7.450;2024-01-15T11:29:06;3.00;;;2.17;;
19291;SDS011;9779;51.756;7.450;2024-01-15T11:34:05;2.43;;;2.20;;
19291;SDS011;9779;51.756;7.450;2024-01-15T11:42:03;2.70;;;2.50;;
19291;SDS011;9779;51.756;7.450;2024-01-15T11:44:29;3.60;;;2.17;;
19291;SDS011;9779;51.756;7.450;2024-01-15T11:52:26;7.70;;;1.90;;
19291;SDS011;9779;51.756;7.450;2024-01-15T11:57:49;5.60;;;2.03;;
19291;SDS011;9779;51.756;7.450;2024-01-15T12:00:16;3.63;;;2.17;;
19291;SDS011;9779;51.756;7.450;2024-01-15T12:02:43;2.77;;;2.20;;
19291;SDS011;9779;51.756;7.450;2024-01-15T12:05:10;4.87;;;1.90;;
19291;SDS011;9779;51.756;7.450;2024-01-15T12:07:46;1.80;;;1.70;;
19291;SDS011;9779;51.756;7.450;2024-01-15T12:10:19;3.00;;;1.87;;
19291;SDS011;9779;51.756;7.450;2024-01-15T12:15:25;6.27;;;2.97;;
19291;SDS011;9779;51.756;7.450;2024-01-15T12:17:56;8.13;;;1.40;;
19291;SDS011;9779;51.756;7.450;2024-01-15T12:20:27;2.77;;;1.60;;
19291;SDS011;9779;51.756;7.450;2024-01-15T12:22:54;3.83;;;1.50;;
19291;SDS011;9779;51.756;7.450;2024-01-15T12:25:20;1.60;;;1.50;;
19291;SDS011;9779;51.756;7.450;2024-01-15T12:27:52;3.60;;;1.47;;
19291;SDS011;9779;51.756;7.450;2024-01-15T12:30:18;1.40;;;1.30;;
19291;SDS011;9779;51.756;7.450;2024-01-15T12:32:44;2.50;;;1.70;;
19291;SDS011;9779;51.756;7.450;2024-01-15T12:35:10;2.37;;;1.27;;
19291;SDS011;9779;51.756;7.450;2024-01-15T12:37:39;4.27;;;1.73;;
19291;SDS011;9779;51.756;7.450;2024-01-15T12:40:05;3.30;;;1.30;;
19291;SDS011;9779;51.756;7.450;2024-01-15T12:42:41;9.47;;;1.87;;
19291;SDS011;9779;51.756;7.450;2024-01-15T12:45:09;2.27;;;2.00;;
19291;SDS011;9779;51.756;7.450;2024-01-15T12:47:35;3.20;;;1.80;;
19291;SDS011;9779;51.756;7.450;2024-01-15T12:50:02;3.37;;;2.10;;
19291;SDS011;9779;51.756;7.450;2024-01-15T12:52:30;3.73;;;2.23;;
19291;SDS011;9779;51.756;7.450;2024-01-15T12:54:57;2.57;;;1.67;;
19291;SDS011;9779;51.756;7.450;2024-01-15T12:57:23;4.73;;;2.40;;
19291;SDS011;9779;51.756;7.450;2024-01-15T12:59:49;5.27;;;2.27;;
19291;SDS011;9779;51.756;7.450;2024-01-15T13:02:15;8.17;;;1.90;;
19291;SDS011;9779;51.756;7.450;2024-01-15T13:04:41;3.57;;;2.07;;
19291;SDS011;9779;51.756;7.450;2024-01-15T13:07:07;4.57;;;2.00;;
19291;SDS011;9779;51.756;7.450;2024-01-15T13:09:33;1.70;;;1.60;;
19291;SDS011;9779;51.756;7.450;2024-01-15T13:12:00;3.60;;;1.73;;
19291;SDS011;9779;51.756;7.450;2024-01-15T13:14:26;3.40;;;2.20;;
19291;SDS011;9779;51.756;7.450;2024-01-15T13:16:52;5.50;;;2.20;;
19291;SDS011;9779;51.756;7.450;2024-01-15T13:19:19;4.80;;;2.00;;
19291;SDS011;9779;51.756;7.450;2024-01-15T13:21:46;3.43;;;2.40;;
19291;SDS011;9779;51.756;7.450;2024-01-15T13:24:11;2.07;;;1.83;;
19291;SDS011;9779;51.756;7.450;2024-01-15T13:26:37;1.93;;;1.83;;
19291;SDS011;9779;51.756;7.450;2024-01-15T13:29:03;3.63;;;2.30;;
19291;SDS011;9779;51.756;7.450;2024-01-15T13:31:29;7.37;;;1.70;;
19291;SDS011;9779;51.756;7.450;2024-01-15T13:33:55;2.20;;;2.00;;
19291;SDS011;9779;51.756;7.450;2024-01-15T13:36:24;2.40;;;2.10;;
19291;SDS011;9779;51.756;7.450;2024-01-15T13:38:51;3.47;;;2.20;;
19291;SDS011;9779;51.756;7.450;2024-01-15T13:41:18;4.00;;;1.67;;
19291;SDS011;9779;51.756;7.450;2024-01-15T13:43:50;1.57;;;1.47;;
19291;SDS011;9779;51.756;7.450;2024-01-15T13:46:18;2.03;;;1.53;;
19291;SDS011;9779;51.756;7.450;2024-01-15T13:48:44;3.87;;;1.60;;
19291;SDS011;9779;51.756;7.450;2024-01-15T13:51:09;3.13;;;2.40;;
19291;SDS011;9779;51.756;7.450;2024-01-15T13:53:37;4.60;;;1.57;;
19291;SDS011;9779;51.756;7.450;2024-01-15T13:56:03;2.23;;;1.33;;
19291;SDS011;9779;51.756;7.450;2024-01-15T13:58:30;1.47;;;1.37;;
19291;SDS011;9779;51.756;7.450;2024-01-15T14:00:56;1.70;;;1.40;;
19291;SDS011;9779;51.756;7.450;2024-01-15T14:03:21;1.67;;;1.57;;
19291;SDS011;9779;51.756;7.450;2024-01-15T14:05:47;5.67;;;1.60;;
19291;SDS011;9779;51.756;7.450;2024-01-15T14:08:12;2.27;;;1.43;;
19291;SDS011;9779;51.756;7.450;2024-01-15T14:10:39;4.20;;;1.57;;
19291;SDS011;9779;51.756;7.450;2024-01-15T14:13:04;5.20;;;1.93;;
19291;SDS011;9779;51.756;7.450;2024-01-15T14:15:30;5.20;;;1.60;;
19291;SDS011;9779;51.756;7.450;2024-01-15T14:17:56;2.47;;;1.70;;
19291;SDS011;9779;51.756;7.450;2024-01-15T14:20:22;2.70;;;2.20;;
19291;SDS011;9779;51.756;7.450;2024-01-15T14:22:48;3.30;;;1.97;;
19291;SDS011;9779;51.756;7.450;2024-01-15T14:25:14;3.83;;;1.83;;
19291;SDS011;9779;51.756;7.450;2024-01-15T14:27:39;8.83;;;2.60;;
19291;SDS011;9779;51.756;7.450;2024-01-15T14:30:05;8.57;;;2.30;;
19291;SDS011;9779;51.756;7.450;2024-01-15T14:32:33;2.47;;;1.73;;
19291;SDS011;9779;51.756;7.450;2024-01-15T14:34:59;2.97;;;2.43;;
19291;SDS011;9779;51.756;7.450;2024-01-15T14:37:25;2.50;;;1.90;;
19291;SDS011;9779;51.756;7.450;2024-01-15T14:39:50;1.77;;;1.40;;
19291;SDS011;9779;51.756;7.450;2024-01-15T14:42:17;5.50;;;1.67;;
19291;SDS011;9779;51.756;7.450;2024-01-15T14:44:42;7.27;;;1.63;;
19291;SDS011;9779;51.756;7.450;2024-01-15T14:47:08;2.07;;;1.23;;
19291;SDS011;9779;51.756;7.450;2024-01-15T14:49:34;2.03;;;1.63;;
19291;SDS011;9779;51.756;7.450;2024-01-15T14:51:59;5.70;;;2.30;;
19291;SDS011;9779;51.756;7.450;2024-01-15T14:54:25;4.53;;;2.33;;
19291;SDS011;9779;51.756;7.450;2024-01-15T14:56:51;5.00;;;1.60;;
19291;SDS011;9779;51.756;7.450;2024-01-15T14:59:17;4.63;;;1.70;;
19291;SDS011;9779;51.756;7.450;2024-01-15T15:01:42;3.70;;;2.00;;
19291;SDS011;9779;51.756;7.450;2024-01-15T15:04:08;2.53;;;1.70;;
19291;SDS011;9779;51.756;7.450;2024-01-15T15:06:35;4.60;;;2.23;;
19291;SDS011;9779;51.756;7.450;2024-01-15T15:09:01;2.10;;;1.90;;
19291;SDS011;9779;51.756;7.450;2024-01-15T15:11:33;2.00;;;1.67;;
19291;SDS011;9779;51.756;7.450;2024-01-15T15:14:00;2.40;;;1.70;;
19291;SDS011;9779;51.756;7.450;2024-01-15T15:16:25;2.97;;;1.63;;
19291;SDS011;9779;51.756;7.450;2024-01-15T15:18:52;7.87;;;1.73;;
19291;SDS011;9779;51.756;7.450;2024-01-15T15:21:18;2.13;;;1.40;;